sensor_id;sensor_type;location;lat;lon;timestamp;temperature;humidity
27801;DHT22;15181;49.112;11.930;2022-08-18T00:00:09;21.30;99.90
27801;DHT22;15181;49.112;11.930;2022-08-18T00:02:39;21.30;99.90
27801;DHT22;15181;49.112;11.930;2022-08-18T00:05:08;21.20;99.90
27801;DHT22;15181;49.112;11.930;2022-08-18T00:07:36;21.20;99.90
27801;DHT22;15181;49.112;11.930;2022-08-18T00:10:05;21.20;99.90
27801;DHT22;15181;49.112;11.930;2022-08-18T00:12:36;21.30;99.90
27801;DHT22;15181;49.112;11.930;2022-08-18T00:15:05;21.40;99.90
27801;DHT22;15181;49.112;11.930;2022-08-18T00:17:34;21.50;99.90
27801;DHT22;15181;49.112;11.930;2022-08-18T00:20:04;21.60;99.90
27801;DHT22;15181;49.112;11.930;2022-08-18T00:22:32;21.90;99.90
27801;DHT22;15181;49.112;11.930;2022-08-18T00:25:00;22.10;99.90
27801;DHT22;15181;49.112;11.930;2022-08-18T00:27:30;22.20;99.90
27801;DHT22;15181;49.112;11.930;2022-08-18T00:29:59;22.40;99.90
27801;DHT22;15181;49.112;11.930;2022-08-18T00:32:30;22.50;99.90
27801;DHT22;15181;49.112;11.930;2022-08-18T00:35:05;22.50;99.90
27801;DHT22;15181;49.112;11.930;2022-08-18T00:37:33;22.60;99.90
27801;DHT22;15181;49.112;11.930;2022-08-18T00:40:03;22.70;99.90
27801;DHT22;15181;49.112;11.930;2022-08-18T00:42:30;22.80;99.90
27801;DHT22;15181;49.112;11.930;2022-08-18T00:45:03;22.80;99.90
27801;DHT22;15181;49.112;11.930;2022-08-18T00:47:31;22.80;99.90
27801;DHT22;15181;49.112;11.930;2022-08-18T00:49:58;22.80;99.90
27801;DHT22;15181;49.112;11.930;2022-08-18T00:52:26;22.80;99.90
27801;DHT22;15181;49.112;11.930;2022-08-18T00:54:53;22.70;99.90
27801;DHT22;15181;49.112;11.930;2022-08-18T00:57:24;22.70;99.90
27801;DHT22;15181;49.112;11.930;2022-08-18T00:59:54;22.70;99.90
27801;DHT22;15181;49.112;11.930;2022-08-18T01:02:33;22.60;99.90
27801;DHT22;15181;49.112;11.930;2022-08-18T01:05:05;22.60;99.90
27801;DHT22;15181;49.112;11.930;2022-08-18T01:07:36;22.50;99.90
27801;DHT22;15181;49.112;11.930;2022-08-18T01:10:06;22.50;99.90
27801;DHT22;15181;49.112;11.930;2022-08-18T01:12:35;22.40;99.90
27801;DHT22;15181;49.112;11.930;2022-08-18T01:15:03;22.40;99.90
27801;DHT22;15181;49.112;11.930;2022-08-18T01:17:30;22.40;99.90
27801;DHT22;15181;49.112;11.930;2022-08-18T01:20:33;22.40;99.90
27801;DHT22;15181;49.112;11.930;2022-08-18T01:23:23;22.30;99.90
27801;DHT22;15181;49.112;11.930;2022-08-18T01:25:51;22.30;99.90
27801;DHT22;15181;49.112;11.930;2022-08-18T01:28:30;22.30;99.90
27801;DHT22;15181;49.112;11.930;2022-08-18T01:30:59;22.30;99.90
27801;DHT22;15181;49.112;11.930;2022-08-18T01:33:29;22.30;99.90
27801;DHT22;15181;49.112;11.930;2022-08-18T01:35:58;22.30;99.90
27801;DHT22;15181;49.112;11.930;2022-08-18T01:38:28;22.30;99.90
27801;DHT22;15181;49.112;11.930;2022-08-18T01:40:56;22.30;99.90
27801;DHT22;15181;49.112;11.930;2022-08-18T01:43:24;22.30;99.90
27801;DHT22;15181;49.112;11.930;2022-08-18T01:45:52;22.30;99.90
27801;DHT22;15181;49.112;11.930;2022-08-18T01:48:25;22.30;99.90
27801;DHT22;15181;49.112;11.930;2022-08-18T01:50:52;22.30;99.90
27801;DHT22;15181;49.112;11.930;2022-08-18T01:53:21;22.30;99.90
27801;DHT22;15181;49.112;11.930;2022-08-18T01:55:50;22.30;99.90
27801;DHT22;15181;49.112;11.930;2022-08-18T01:58:17;22.30;99.90
27801;DHT22;15181;49.112;11.930;2022-08-18T02:00:50;22.30;99.90
27801;DHT22;15181;49.112;11.930;2022-08-18T02:03:18;22.30;99.90
27801;DHT22;15181;49.112;11.930;2022-08-18T02:05:48;22.20;99.90
27801;DHT22;15181;49.112;11.930;2022-08-18T02:08:17;22.20;99.90
27801;DHT22;15181;49.112;11.930;2022-08-18T02:10:44;22.10;99.90
27801;DHT22;15181;49.112;11.930;2022-08-18T02:13:13;22.10;99.90
27801;DHT22;15181;49.112;11.930;2022-08-18T02:15:40;22.10;99.90
27801;DHT22;15181;49.112;11.930;2022-08-18T02:18:13;22.10;99.90
27801;DHT22;15181;49.112;11.930;2022-08-18T02:20:40;22.00;99.90
27801;DHT22;15181;49.112;11.930;2022-08-18T02:23:07;21.90;99.90
27801;DHT22;15181;49.112;11.930;2022-08-18T02:25:35;21.90;99.90
27801;DHT22;15181;49.112;11.930;2022-08-18T02:28:03;21.90;99.90
27801;DHT22;15181;49.112;11.930;2022-08-18T02:30:33;21.90;99.90
27801;DHT22;15181;49.112;11.930;2022-08-18T02:33:02;21.90;99.90
27801;DHT22;15181;49.112;11.930;2022-08-18T02:35:29;21.90;99.90
27801;DHT22;15181;49.112;11.930;2022-08-18T02:37:58;21.90;99.90
27801;DHT22;15181;49.112;11.930;2022-08-18T02:40:25;21.90;99.90
27801;DHT22;15181;49.112;11.930;2022-08-18T02:42:53;21.90;99.90
27801;DHT22;15181;49.112;11.930;2022-08-18T02:45:21;21.90;99.90
27801;DHT22;15181;49.112;11.930;2022-08-18T02:47:52;21.80;99.90
27801;DHT22;15181;49.112;11.930;2022-08-18T02:50:22;21.70;99.90
27801;DHT22;15181;49.112;11.930;2022-08-18T02:52:50;21.70;99.90
27801;DHT22;15181;49.112;11.930;2022-08-18T02:55:18;21.70;99.90
27801;DHT22;15181;49.112;11.930;2022-08-18T02:57:47;21.70;99.90
27801;DHT22;15181;49.112;11.930;2022-08-18T03:00:17;21.80;99.90
27801;DHT22;15181;49.112;11.930;2022-08-18T03:02:45;21.80;99.90
27801;DHT22;15181;49.112;11.930;2022-08-18T03:05:16;21.80;99.90
27801;DHT22;15181;49.112;11.930;2022-08-18T03:07:45;21.90;99.90
27801;DHT22;15181;49.112;11.930;2022-08-18T03:10:12;21.90;99.90
27801;DHT22;15181;49.112;11.930;2022-08-18T03:12:41;21.90;99.90
27801;DHT22;15181;49.112;11.930;2022-08-18T03:15:09;21.90;99.90
27801;DHT22;15181;49.112;11.930;2022-08-18T03:17:36;21.90;99.90
27801;DHT22;15181;49.112;11.930;2022-08-18T03:20:04;21.90;99.90
27801;DHT22;15181;49.112;11.930;2022-08-18T03:22:33;21.90;99.90
27801;DHT22;15181;49.112;11.930;2022-08-18T03:25:00;21.90;99.90
27801;DHT22;15181;49.112;11.930;2022-08-18T03:27:27;21.90;99.90
27801;DHT22;15181;49.112;11.930;2022-08-18T03:29:54;21.90;99.90
27801;DHT22;15181;49.112;11.930;2022-08-18T03:32:21;21.80;99.90
27801;DHT22;15181;49.112;11.930;2022-08-18T03:34:49;21.80;99.90
27801;DHT22;15181;49.112;11.930;2022-08-18T03:37:16;21.70;99.90
27801;DHT22;15181;49.112;11.930;2022-08-18T03:39:44;21.70;99.90
27801;DHT22;15181;49.112;11.930;2022-08-18T03:42:11;21.70;99.90
27801;DHT22;15181;49.112;11.930;2022-08-18T03:44:38;21.70;99.90
27801;DHT22;15181;49.112;11.930;2022-08-18T03:47:08;21.50;99.90
27801;DHT22;15181;49.112;11.930;2022-08-18T03:49:36;21.50;99.90
27801;DHT22;15181;49.112;11.930;2022-08-18T03:52:07;21.40;99.90
27801;DHT22;15181;49.112;11.930;2022-08-18T03:54:34;21.30;99.90
27801;DHT22;15181;49.112;11.930;2022-08-18T03:57:06;21.30;99.90
27801;DHT22;15181;49.112;11.930;2022-08-18T03:59:33;21.30;99.90
27801;DHT22;15181;49.112;11.930;2022-08-18T04:02:02;21.30;99.90
27801;DHT22;15181;49.112;11.930;2022-08-18T04:04:30;21.30;99.90
27801;DHT22;15181;49.112;11.930;2022-08-18T04:06:59;21.30;99.90
27801;DHT22;15181;49.112;11.930;2022-08-18T04:09:30;21.30;99.90
27801;DHT22;15181;49.112;11.930;2022-08-18T04:12:03;21.40;99.90
27801;DHT22;15181;49.112;11.930;2022-08-18T04:14:38;21.40;99.90
27801;DHT22;15181;49.112;11.930;2022-08-18T04:17:05;21.50;99.90
27801;DHT22;15181;49.112;11.930;2022-08-18T04:19:32;21.50;99.90
27801;DHT22;15181;49.112;11.930;2022-08-18T04:22:02;21.50;99.90
27801;DHT22;15181;49.112;11.930;2022-08-18T04:24:30;21.60;99.90
27801;DHT22;15181;49.112;11.930;2022-08-18T04:26:58;21.60;99.90
27801;DHT22;15181;49.112;11.930;2022-08-18T04:29:26;21.60;99.90
27801;DHT22;15181;49.112;11.930;2022-08-18T04:31:59;21.60;99.90
27801;DHT22;15181;49.112;11.930;2022-08-18T04:34:27;21.60;99.90
27801;DHT22;15181;49.112;11.930;2022-08-18T04:36:54;21.50;99.90
27801;DHT22;15181;49.112;11.930;2022-08-18T04:39:22;21.30;99.90
27801;DHT22;15181;49.112;11.930;2022-08-18T04:41:50;21.30;99.90
27801;DHT22;15181;49.112;11.930;2022-08-18T04:44:18;21.20;99.90
27801;DHT22;15181;49.112;11.930;2022-08-18T04:46:47;21.20;99.90
27801;DHT22;15181;49.112;11.930;2022-08-18T04:49:17;21.10;99.90
27801;DHT22;15181;49.112;11.930;2022-08-18T04:51:46;21.10;99.90
27801;DHT22;15181;49.112;11.930;2022-08-18T04:54:35;21.20;99.90
27801;DHT22;15181;49.112;11.930;2022-08-18T04:57:08;20.90;99.90
27801;DHT22;15181;49.112;11.930;2022-08-18T04:59:36;20.80;99.90
27801;DHT22;15181;49.112;11.930;2022-08-18T05:02:05;20.70;99.90
27801;DHT22;15181;49.112;11.930;2022-08-18T05:04:36;20.80;99.90
27801;DHT22;15181;49.112;11.930;2022-08-18T05:07:04;20.80;99.90
27801;DHT22;15181;49.112;11.930;2022-08-18T05:09:32;20.90;99.90
27801;DHT22;15181;49.112;11.930;2022-08-18T05:12:00;21.00;99.90
27801;DHT22;15181;49.112;11.930;2022-08-18T05:14:28;21.10;99.90
27801;DHT22;15181;49.112;11.930;2022-08-18T05:16:57;21.10;99.90
27801;DHT22;15181;49.112;11.930;2022-08-18T05:19:24;21.00;99.90
27801;DHT22;15181;49.112;11.930;2022-08-18T05:21:53;21.00;99.90
27801;DHT22;15181;49.112;11.930;2022-08-18T05:24:22;21.00;99.90
27801;DHT22;15181;49.112;11.930;2022-08-18T05:26:50;20.90;99.90
27801;DHT22;15181;49.112;11.930;2022-08-18T05:29:18;21.00;99.90
27801;DHT22;15181;49.112;11.930;2022-08-18T05:31:45;21.10;99.90
27801;DHT22;15181;49.112;11.930;2022-08-18T05:34:14;21.10;99.90
27801;DHT22;15181;49.112;11.930;2022-08-18T05:37:00;21.10;99.90
27801;DHT22;15181;49.112;11.930;2022-08-18T05:39:34;21.00;99.90
27801;DHT22;15181;49.112;11.930;2022-08-18T05:42:06;21.00;99.90
27801;DHT22;15181;49.112;11.930;2022-08-18T05:44:39;21.10;99.90
27801;DHT22;15181;49.112;11.930;2022-08-18T05:47:13;21.00;99.90
27801;DHT22;15181;49.112;11.930;2022-08-18T05:49:42;21.10;99.90
27801;DHT22;15181;49.112;11.930;2022-08-18T05:52:15;21.10;99.90
27801;DHT22;15181;49.112;11.930;2022-08-18T05:54:47;21.20;99.90
27801;DHT22;15181;49.112;11.930;2022-08-18T05:57:37;21.30;99.90
27801;DHT22;15181;49.112;11.930;2022-08-18T06:00:06;21.40;99.90
27801;DHT22;15181;49.112;11.930;2022-08-18T06:02:38;21.50;99.90
27801;DHT22;15181;49.112;11.930;2022-08-18T06:05:14;21.50;99.90
27801;DHT22;15181;49.112;11.930;2022-08-18T06:07:53;21.70;99.90
27801;DHT22;15181;49.112;11.930;2022-08-18T06:10:20;21.70;99.90
27801;DHT22;15181;49.112;11.930;2022-08-18T06:12:49;21.80;99.90
27801;DHT22;15181;49.112;11.930;2022-08-18T06:15:25;21.90;99.90
27801;DHT22;15181;49.112;11.930;2022-08-18T06:18:24;22.00;99.90
27801;DHT22;15181;49.112;11.930;2022-08-18T06:21:10;22.30;99.90
27801;DHT22;15181;49.112;11.930;2022-08-18T06:23:47;22.40;99.90
27801;DHT22;15181;49.112;11.930;2022-08-18T06:26:19;22.50;99.90
27801;DHT22;15181;49.112;11.930;2022-08-18T06:28:59;22.70;99.90
27801;DHT22;15181;49.112;11.930;2022-08-18T06:31:35;22.90;99.90
27801;DHT22;15181;49.112;11.930;2022-08-18T06:34:14;23.10;99.90
27801;DHT22;15181;49.112;11.930;2022-08-18T06:36:49;23.30;99.90
27801;DHT22;15181;49.112;11.930;2022-08-18T06:39:25;23.50;99.90
27801;DHT22;15181;49.112;11.930;2022-08-18T06:41:54;23.60;99.90
27801;DHT22;15181;49.112;11.930;2022-08-18T06:44:28;23.80;99.90
27801;DHT22;15181;49.112;11.930;2022-08-18T06:47:00;23.90;99.90
27801;DHT22;15181;49.112;11.930;2022-08-18T06:49:41;23.90;99.90
27801;DHT22;15181;49.112;11.930;2022-08-18T06:52:19;23.90;99.90
27801;DHT22;15181;49.112;11.930;2022-08-18T06:54:49;24.00;99.90
27801;DHT22;15181;49.112;11.930;2022-08-18T06:57:33;24.20;99.90
27801;DHT22;15181;49.112;11.930;2022-08-18T07:00:07;24.30;99.90
27801;DHT22;15181;49.112;11.930;2022-08-18T07:02:44;24.40;99.90
27801;DHT22;15181;49.112;11.930;2022-08-18T07:05:22;24.60;99.90
27801;DHT22;15181;49.112;11.930;2022-08-18T07:08:10;24.60;99.90
27801;DHT22;15181;49.112;11.930;2022-08-18T07:10:41;24.80;99.90
27801;DHT22;15181;49.112;11.930;2022-08-18T07:13:19;24.80;99.90
27801;DHT22;15181;49.112;11.930;2022-08-18T07:15:47;25.00;99.90
27801;DHT22;15181;49.112;11.930;2022-08-18T07:18:21;24.80;99.90
27801;DHT22;15181;49.112;11.930;2022-08-18T07:20:51;24.90;99.90
27801;DHT22;15181;49.112;11.930;2022-08-18T07:23:28;24.90;99.90
27801;DHT22;15181;49.112;11.930;2022-08-18T07:26:16;24.90;99.90
27801;DHT22;15181;49.112;11.930;2022-08-18T07:28:46;25.10;99.90
27801;DHT22;15181;49.112;11.930;2022-08-18T07:31:20;25.30;99.90
27801;DHT22;15181;49.112;11.930;2022-08-18T07:33:54;25.50;99.90
27801;DHT22;15181;49.112;11.930;2022-08-18T07:36:25;25.60;99.90
27801;DHT22;15181;49.112;11.930;2022-08-18T07:38:59;25.30;99.90
27801;DHT22;15181;49.112;11.930;2022-08-18T07:41:32;25.20;99.90
27801;DHT22;15181;49.112;11.930;2022-08-18T07:44:12;25.20;99.90
27801;DHT22;15181;49.112;11.930;2022-08-18T07:46:49;25.20;99.90
27801;DHT22;15181;49.112;11.930;2022-08-18T07:49:18;25.30;99.90
27801;DHT22;15181;49.112;11.930;2022-08-18T07:51:51;25.20;99.90
27801;DHT22;15181;49.112;11.930;2022-08-18T07:54:32;25.20;99.90
27801;DHT22;15181;49.112;11.930;2022-08-18T07:57:07;25.30;99.90
27801;DHT22;15181;49.112;11.930;2022-08-18T07:59:46;25.40;99.90
27801;DHT22;15181;49.112;11.930;2022-08-18T08:02:31;25.40;99.90
27801;DHT22;15181;49.112;11.930;2022-08-18T08:05:08;25.50;99.90
27801;DHT22;15181;49.112;11.930;2022-08-18T08:07:44;25.50;99.90
27801;DHT22;15181;49.112;11.930;2022-08-18T08:10:28;25.60;99.90
27801;DHT22;15181;49.112;11.930;2022-08-18T08:13:05;25.70;99.90
27801;DHT22;15181;49.112;11.930;2022-08-18T08:15:42;25.70;99.90
27801;DHT22;15181;49.112;11.930;2022-08-18T08:18:19;25.60;99.90
27801;DHT22;15181;49.112;11.930;2022-08-18T08:20:53;25.70;99.90
27801;DHT22;15181;49.112;11.930;2022-08-18T08:23:26;25.90;99.90
27801;DHT22;15181;49.112;11.930;2022-08-18T08:26:19;26.10;99.90
27801;DHT22;15181;49.112;11.930;2022-08-18T08:29:00;26.10;99.90
27801;DHT22;15181;49.112;11.930;2022-08-18T08:31:33;26.10;99.90
27801;DHT22;15181;49.112;11.930;2022-08-18T08:34:11;26.20;99.90
27801;DHT22;15181;49.112;11.930;2022-08-18T08:36:40;26.20;99.90
27801;DHT22;15181;49.112;11.930;2022-08-18T08:39:13;25.80;99.90
27801;DHT22;15181;49.112;11.930;2022-08-18T08:41:46;25.90;99.90
27801;DHT22;15181;49.112;11.930;2022-08-18T08:44:21;26.00;99.90
27801;DHT22;15181;49.112;11.930;2022-08-18T08:46:50;25.90;99.90
27801;DHT22;15181;49.112;11.930;2022-08-18T08:49:29;25.80;99.90
27801;DHT22;15181;49.112;11.930;2022-08-18T08:52:00;26.00;99.90
27801;DHT22;15181;49.112;11.930;2022-08-18T08:54:37;26.30;99.90
27801;DHT22;15181;49.112;11.930;2022-08-18T08:57:08;26.50;99.90
27801;DHT22;15181;49.112;11.930;2022-08-18T08:59:38;26.50;99.90
27801;DHT22;15181;49.112;11.930;2022-08-18T09:02:27;26.50;99.90
27801;DHT22;15181;49.112;11.930;2022-08-18T09:04:59;26.40;99.90
27801;DHT22;15181;49.112;11.930;2022-08-18T09:07:48;26.40;99.90
27801;DHT22;15181;49.112;11.930;2022-08-18T09:10:37;26.70;99.90
27801;DHT22;15181;49.112;11.930;2022-08-18T09:13:22;26.80;99.90
27801;DHT22;15181;49.112;11.930;2022-08-18T09:16:09;26.80;99.90
27801;DHT22;15181;49.112;11.930;2022-08-18T09:18:51;26.70;99.90
27801;DHT22;15181;49.112;11.930;2022-08-18T09:21:33;26.70;99.90
27801;DHT22;15181;49.112;11.930;2022-08-18T09:24:08;26.80;99.90
27801;DHT22;15181;49.112;11.930;2022-08-18T09:26:43;27.00;99.90
27801;DHT22;15181;49.112;11.930;2022-08-18T09:29:17;27.30;99.90
27801;DHT22;15181;49.112;11.930;2022-08-18T09:35:04;27.20;99.90
27801;DHT22;15181;49.112;11.930;2022-08-18T09:37:44;26.80;99.90
27801;DHT22;15181;49.112;11.930;2022-08-18T09:40:14;26.80;99.90
27801;DHT22;15181;49.112;11.930;2022-08-18T09:43:09;27.10;99.90
27801;DHT22;15181;49.112;11.930;2022-08-18T09:45:53;27.30;99.90
27801;DHT22;15181;49.112;11.930;2022-08-18T09:48:25;27.40;99.90
27801;DHT22;15181;49.112;11.930;2022-08-18T09:51:30;27.60;99.90
27801;DHT22;15181;49.112;11.930;2022-08-18T09:54:14;27.80;99.90
27801;DHT22;15181;49.112;11.930;2022-08-18T09:57:15;28.00;99.90
27801;DHT22;15181;49.112;11.930;2022-08-18T10:06:16;28.50;99.90
27801;DHT22;15181;49.112;11.930;2022-08-18T10:09:00;28.60;99.90
27801;DHT22;15181;49.112;11.930;2022-08-18T10:11:36;28.60;99.90
27801;DHT22;15181;49.112;11.930;2022-08-18T10:14:44;28.70;99.90
27801;DHT22;15181;49.112;11.930;2022-08-18T10:17:25;28.90;99.90
27801;DHT22;15181;49.112;11.930;2022-08-18T10:20:00;28.90;99.90
27801;DHT22;15181;49.112;11.930;2022-08-18T10:22:47;29.00;99.90
27801;DHT22;15181;49.112;11.930;2022-08-18T10:25:31;29.00;99.90
27801;DHT22;15181;49.112;11.930;2022-08-18T10:27:59;29.00;99.90
27801;DHT22;15181;49.112;11.930;2022-08-18T10:31:03;29.10;99.90
27801;DHT22;15181;49.112;11.930;2022-08-18T10:34:00;29.20;99.90
27801;DHT22;15181;49.112;11.930;2022-08-18T10:39:18;28.80;99.90
27801;DHT22;15181;49.112;11.930;2022-08-18T10:41:55;28.50;99.90
27801;DHT22;15181;49.112;11.930;2022-08-18T10:44:25;28.80;99.90
27801;DHT22;15181;49.112;11.930;2022-08-18T10:46:54;29.00;99.90
27801;DHT22;15181;49.112;11.930;2022-08-18T10:49:26;29.20;99.90
27801;DHT22;15181;49.112;11.930;2022-08-18T10:52:07;29.40;99.90
27801;DHT22;15181;49.112;11.930;2022-08-18T10:58:09;29.80;99.90
27801;DHT22;15181;49.112;11.930;2022-08-18T11:00:46;29.90;99.90
27801;DHT22;15181;49.112;11.930;2022-08-18T11:03:29;30.00;99.90
27801;DHT22;15181;49.112;11.930;2022-08-18T11:06:05;30.00;99.90
27801;DHT22;15181;49.112;11.930;2022-08-18T11:08:40;30.10;99.90
27801;DHT22;15181;49.112;11.930;2022-08-18T11:11:11;30.20;99.90
27801;DHT22;15181;49.112;11.930;2022-08-18T11:13:48;30.20;99.90
27801;DHT22;15181;49.112;11.930;2022-08-18T11:16:28;30.30;99.90
27801;DHT22;15181;49.112;11.930;2022-08-18T11:19:06;30.30;99.90
27801;DHT22;15181;49.112;11.930;2022-08-18T11:21:38;30.20;99.90
27801;DHT22;15181;49.112;11.930;2022-08-18T11:24:10;30.20;99.90
27801;DHT22;15181;49.112;11.930;2022-08-18T11:26:43;30.30;99.90
27801;DHT22;15181;49.112;11.930;2022-08-18T11:29:19;30.40;99.90
27801;DHT22;15181;49.112;11.930;2022-08-18T11:31:47;30.40;99.90
27801;DHT22;15181;49.112;11.930;2022-08-18T11:34:18;29.90;99.90
27801;DHT22;15181;49.112;11.930;2022-08-18T11:36:54;29.90;99.90
27801;DHT22;15181;49.112;11.930;2022-08-18T11:39:22;30.10;99.90
27801;DHT22;15181;49.112;11.930;2022-08-18T11:41:51;30.20;99.90
27801;DHT22;15181;49.112;11.930;2022-08-18T11:44:20;30.40;99.90
27801;DHT22;15181;49.112;11.930;2022-08-18T11:46:55;30.50;99.90
27801;DHT22;15181;49.112;11.930;2022-08-18T11:49:35;30.40;99.90
27801;DHT22;15181;49.112;11.930;2022-08-18T11:52:16;30.00;99.90
27801;DHT22;15181;49.112;11.930;2022-08-18T11:54:48;29.60;99.90
27801;DHT22;15181;49.112;11.930;2022-08-18T11:57:50;29.50;99.90
27801;DHT22;15181;49.112;11.930;2022-08-18T12:03:29;29.50;99.90
27801;DHT22;15181;49.112;11.930;2022-08-18T12:06:07;29.30;99.90
27801;DHT22;15181;49.112;11.930;2022-08-18T12:08:46;29.20;99.90
27801;DHT22;15181;49.112;11.930;2022-08-18T12:11:17;29.20;99.90
27801;DHT22;15181;49.112;11.930;2022-08-18T12:13:48;29.30;99.90
27801;DHT22;15181;49.112;11.930;2022-08-18T12:16:31;29.10;99.90
27801;DHT22;15181;49.112;11.930;2022-08-18T12:19:00;29.20;99.90
27801;DHT22;15181;49.112;11.930;2022-08-18T12:21:28;29.40;99.90
27801;DHT22;15181;49.112;11.930;2022-08-18T12:23:55;29.40;99.90
27801;DHT22;15181;49.112;11.930;2022-08-18T12:26:23;29.50;99.90
27801;DHT22;15181;49.112;11.930;2022-08-18T12:28:51;29.70;99.90
27801;DHT22;15181;49.112;11.930;2022-08-18T12:31:19;29.90;99.90
27801;DHT22;15181;49.112;11.930;2022-08-18T12:33:46;29.90;99.90
27801;DHT22;15181;49.112;11.930;2022-08-18T12:36:13;29.90;99.90
27801;DHT22;15181;49.112;11.930;2022-08-18T12:38:43;29.90;99.90
27801;DHT22;15181;49.112;11.930;2022-08-18T12:41:11;29.90;99.90
27801;DHT22;15181;49.112;11.930;2022-08-18T12:43:40;29.70;99.90
27801;DHT22;15181;49.112;11.930;2022-08-18T12:46:09;29.90;99.90
27801;DHT22;15181;49.112;11.930;2022-08-18T12:48:37;30.10;99.90
27801;DHT22;15181;49.112;11.930;2022-08-18T12:51:06;30.40;99.90
27801;DHT22;15181;49.112;11.930;2022-08-18T12:53:34;30.40;99.90
27801;DHT22;15181;49.112;11.930;2022-08-18T12:56:01;30.20;99.90
27801;DHT22;15181;49.112;11.930;2022-08-18T12:58:29;30.10;99.90
27801;DHT22;15181;49.112;11.930;2022-08-18T13:00:56;30.10;99.90
27801;DHT22;15181;49.112;11.930;2022-08-18T13:03:25;30.30;99.90
27801;DHT22;15181;49.112;11.930;2022-08-18T13:05:53;30.50;99.90
27801;DHT22;15181;49.112;11.930;2022-08-18T13:08:21;30.70;99.90
27801;DHT22;15181;49.112;11.930;2022-08-18T13:10:49;30.30;99.90
27801;DHT22;15181;49.112;11.930;2022-08-18T13:13:17;30.40;99.90
27801;DHT22;15181;49.112;11.930;2022-08-18T13:15:45;30.60;99.90
27801;DHT22;15181;49.112;11.930;2022-08-18T13:18:13;30.70;99.90
27801;DHT22;15181;49.112;11.930;2022-08-18T13:20:42;30.80;99.90
27801;DHT22;15181;49.112;11.930;2022-08-18T13:23:09;30.70;99.90
27801;DHT22;15181;49.112;11.930;2022-08-18T13:25:37;30.10;99.90
27801;DHT22;15181;49.112;11.930;2022-08-18T13:28:06;29.70;99.90
27801;DHT22;15181;49.112;11.930;2022-08-18T13:30:33;29.70;99.90
27801;DHT22;15181;49.112;11.930;2022-08-18T13:33:02;29.80;99.90
27801;DHT22;15181;49.112;11.930;2022-08-18T13:35:32;29.90;99.90
27801;DHT22;15181;49.112;11.930;2022-08-18T13:38:03;30.10;99.90
27801;DHT22;15181;49.112;11.930;2022-08-18T13:40:31;30.10;99.90
27801;DHT22;15181;49.112;11.930;2022-08-18T13:43:01;30.10;99.90
27801;DHT22;15181;49.112;11.930;2022-08-18T13:45:28;30.40;99.90
27801;DHT22;15181;49.112;11.930;2022-08-18T13:47:55;30.60;99.90
27801;DHT22;15181;49.112;11.930;2022-08-18T13:50:23;30.50;99.90
27801;DHT22;15181;49.112;11.930;2022-08-18T13:52:50;30.50;99.90
27801;DHT22;15181;49.112;11.930;2022-08-18T13:55:21;30.60;99.90
27801;DHT22;15181;49.112;11.930;2022-08-18T13:57:54;30.60;99.90
27801;DHT22;15181;49.112;11.930;2022-08-18T14:00:23;30.50;99.90
27801;DHT22;15181;49.112;11.930;2022-08-18T14:02:54;30.10;99.90
27801;DHT22;15181;49.112;11.930;2022-08-18T14:05:25;29.90;99.90
27801;DHT22;15181;49.112;11.930;2022-08-18T14:07:52;29.90;99.90
27801;DHT22;15181;49.112;11.930;2022-08-18T14:10:21;29.80;99.90
27801;DHT22;15181;49.112;11.930;2022-08-18T14:12:51;29.80;99.90
27801;DHT22;15181;49.112;11.930;2022-08-18T14:15:20;29.80;99.90
27801;DHT22;15181;49.112;11.930;2022-08-18T14:17:47;30.00;99.90
27801;DHT22;15181;49.112;11.930;2022-08-18T14:20:16;30.00;99.90
27801;DHT22;15181;49.112;11.930;2022-08-18T14:23:15;30.10;99.90
27801;DHT22;15181;49.112;11.930;2022-08-18T14:26:01;30.10;99.90
27801;DHT22;15181;49.112;11.930;2022-08-18T14:28:46;30.10;99.90
27801;DHT22;15181;49.112;11.930;2022-08-18T14:31:13;30.00;99.90
27801;DHT22;15181;49.112;11.930;2022-08-18T14:33:40;30.10;99.90
27801;DHT22;15181;49.112;11.930;2022-08-18T14:36:09;30.10;99.90
27801;DHT22;15181;49.112;11.930;2022-08-18T14:38:39;30.10;99.90
27801;DHT22;15181;49.112;11.930;2022-08-18T14:41:10;30.10;99.90
27801;DHT22;15181;49.112;11.930;2022-08-18T14:43:38;30.20;99.90
27801;DHT22;15181;49.112;11.930;2022-08-18T14:46:08;30.20;99.90
27801;DHT22;15181;49.112;11.930;2022-08-18T14:48:38;30.20;99.90
27801;DHT22;15181;49.112;11.930;2022-08-18T14:51:07;30.20;99.90
27801;DHT22;15181;49.112;11.930;2022-08-18T14:53:35;30.30;99.90
27801;DHT22;15181;49.112;11.930;2022-08-18T14:56:04;30.20;99.90
27801;DHT22;15181;49.112;11.930;2022-08-18T14:58:34;30.10;99.90
27801;DHT22;15181;49.112;11.930;2022-08-18T15:01:04;30.10;99.90
27801;DHT22;15181;49.112;11.930;2022-08-18T15:03:34;30.10;99.90
27801;DHT22;15181;49.112;11.930;2022-08-18T15:06:04;30.10;99.90
27801;DHT22;15181;49.112;11.930;2022-08-18T15:08:32;30.20;99.90
27801;DHT22;15181;49.112;11.930;2022-08-18T15:11:02;30.20;99.90
27801;DHT22;15181;49.112;11.930;2022-08-18T15:13:31;30.20;99.90
27801;DHT22;15181;49.112;11.930;2022-08-18T15:16:01;30.30;99.90
27801;DHT22;15181;49.112;11.930;2022-08-18T15:18:28;30.30;99.90
27801;DHT22;15181;49.112;11.930;2022-08-18T15:20:55;30.30;99.90
27801;DHT22;15181;49.112;11.930;2022-08-18T15:23:40;30.40;99.90
27801;DHT22;15181;49.112;11.930;2022-08-18T15:26:24;30.40;99.90
27801;DHT22;15181;49.112;11.930;2022-08-18T15:28:52;30.50;99.90
27801;DHT22;15181;49.112;11.930;2022-08-18T15:31:22;30.50;99.90
27801;DHT22;15181;49.112;11.930;2022-08-18T15:33:52;30.50;99.90
27801;DHT22;15181;49.112;11.930;2022-08-18T15:36:20;30.60;99.90
27801;DHT22;15181;49.112;11.930;2022-08-18T15:38:48;30.60;99.90
27801;DHT22;15181;49.112;11.930;2022-08-18T15:41:28;30.60;99.90
27801;DHT22;15181;49.112;11.930;2022-08-18T15:43:55;30.60;99.90
27801;DHT22;15181;49.112;11.930;2022-08-18T15:46:24;30.70;99.90
27801;DHT22;15181;49.112;11.930;2022-08-18T15:48:51;30.70;99.90
27801;DHT22;15181;49.112;11.930;2022-08-18T15:51:19;30.60;99.90
27801;DHT22;15181;49.112;11.930;2022-08-18T15:53:46;30.70;99.90
27801;DHT22;15181;49.112;11.930;2022-08-18T15:56:15;30.70;99.90
27801;DHT22;15181;49.112;11.930;2022-08-18T15:58:42;30.60;99.90
27801;DHT22;15181;49.112;11.930;2022-08-18T16:01:11;30.70;99.90
27801;DHT22;15181;49.112;11.930;2022-08-18T16:03:40;30.60;99.90
27801;DHT22;15181;49.112;11.930;2022-08-18T16:06:12;30.60;99.90